sensor_id;sensor_type;location;lat;lon;timestamp;P1;durP1;ratioP1;P2;durP2;ratioP2
54919;SDS011;63804;53.120;8.764;2024-03-08T00:00:13;25.77;;;14.82;;
54919;SDS011;63804;53.120;8.764;2024-03-08T00:02:44;25.75;;;14.23;;
54919;SDS011;63804;53.120;8.764;2024-03-08T00:05:15;24.95;;;13.88;;
54919;SDS011;63804;53.120;8.764;2024-03-08T00:07:42;23.58;;;14.45;;
54919;SDS011;63804;53.120;8.764;2024-03-08T00:10:11;25.58;;;14.52;;
54919;SDS011;63804;53.120;8.764;2024-03-08T00:12:41;25.50;;;13.93;;
54919;SDS011;63804;53.120;8.764;2024-03-08T00:15:16;23.35;;;13.90;;
54919;SDS011;63804;53.120;8.764;2024-03-08T00:17:46;25.40;;;14.32;;
54919;SDS011;63804;53.120;8.764;2024-03-08T00:20:15;24.20;;;14.27;;
54919;SDS011;63804;53.120;8.764;2024-03-08T00:22:46;24.73;;;14.55;;
54919;SDS011;63804;53.120;8.764;2024-03-08T00:25:14;24.38;;;14.43;;
54919;SDS011;63804;53.120;8.764;2024-03-08T00:27:42;23.70;;;14.02;;
54919;SDS011;63804;53.120;8.764;2024-03-08T00:30:09;26.45;;;14.05;;
54919;SDS011;63804;53.120;8.764;2024-03-08T00:32:38;23.15;;;13.63;;
54919;SDS011;63804;53.120;8.764;2024-03-08T00:35:05;27.35;;;14.48;;
54919;SDS011;63804;53.120;8.764;2024-03-08T00:37:34;24.55;;;14.02;;
54919;SDS011;63804;53.120;8.764;2024-03-08T00:40:02;23.55;;;14.00;;
54919;SDS011;63804;53.120;8.764;2024-03-08T00:42:30;27.80;;;14.90;;
54919;SDS011;63804;53.120;8.764;2024-03-08T00:44:57;24.52;;;14.82;;
54919;SDS011;63804;53.120;8.764;2024-03-08T00:47:26;25.35;;;13.30;;
54919;SDS011;63804;53.120;8.764;2024-03-08T00:49:54;20.98;;;13.10;;
54919;SDS011;63804;53.120;8.764;2024-03-08T00:52:23;25.00;;;13.32;;
54919;SDS011;63804;53.120;8.764;2024-03-08T00:54:51;28.42;;;14.63;;
54919;SDS011;63804;53.120;8.764;2024-03-08T00:57:18;26.52;;;13.80;;
54919;SDS011;63804;53.120;8.764;2024-03-08T00:59:46;23.17;;;13.23;;
54919;SDS011;63804;53.120;8.764;2024-03-08T01:02:14;23.27;;;13.80;;
54919;SDS011;63804;53.120;8.764;2024-03-08T01:04:41;23.52;;;13.65;;
54919;SDS011;63804;53.120;8.764;2024-03-08T01:07:08;27.15;;;13.65;;
54919;SDS011;63804;53.120;8.764;2024-03-08T01:09:36;26.52;;;13.25;;
54919;SDS011;63804;53.120;8.764;2024-03-08T01:12:03;22.45;;;12.63;;
54919;SDS011;63804;53.120;8.764;2024-03-08T01:14:30;22.63;;;12.85;;
54919;SDS011;63804;53.120;8.764;2024-03-08T01:16:58;24.20;;;13.60;;
54919;SDS011;63804;53.120;8.764;2024-03-08T01:19:26;22.10;;;12.80;;
54919;SDS011;63804;53.120;8.764;2024-03-08T01:21:54;23.17;;;12.90;;
54919;SDS011;63804;53.120;8.764;2024-03-08T01:24:23;26.48;;;12.57;;
54919;SDS011;63804;53.120;8.764;2024-03-08T01:26:50;22.05;;;12.95;;
54919;SDS011;63804;53.120;8.764;2024-03-08T01:29:18;24.08;;;12.40;;
54919;SDS011;63804;53.120;8.764;2024-03-08T01:31:45;23.63;;;13.38;;
54919;SDS011;63804;53.120;8.764;2024-03-08T01:34:12;23.05;;;13.45;;
54919;SDS011;63804;53.120;8.764;2024-03-08T01:36:40;23.60;;;13.13;;
54919;SDS011;63804;53.120;8.764;2024-03-08T01:39:07;22.63;;;12.63;;
54919;SDS011;63804;53.120;8.764;2024-03-08T01:41:35;24.42;;;13.60;;
54919;SDS011;63804;53.120;8.764;2024-03-08T01:44:03;23.00;;;12.88;;
54919;SDS011;63804;53.120;8.764;2024-03-08T01:46:32;24.48;;;13.45;;
54919;SDS011;63804;53.120;8.764;2024-03-08T01:49:00;23.00;;;13.48;;
54919;SDS011;63804;53.120;8.764;2024-03-08T01:51:29;22.92;;;13.07;;
54919;SDS011;63804;53.120;8.764;2024-03-08T01:53:58;21.70;;;12.98;;
54919;SDS011;63804;53.120;8.764;2024-03-08T01:56:30;24.30;;;13.43;;
54919;SDS011;63804;53.120;8.764;2024-03-08T01:58:59;20.85;;;12.60;;
54919;SDS011;63804;53.120;8.764;2024-03-08T02:01:26;21.88;;;12.27;;
54919;SDS011;63804;53.120;8.764;2024-03-08T02:03:55;25.13;;;12.77;;
54919;SDS011;63804;53.120;8.764;2024-03-08T02:06:23;22.90;;;12.48;;
54919;SDS011;63804;53.120;8.764;2024-03-08T02:08:50;22.23;;;12.85;;
54919;SDS011;63804;53.120;8.764;2024-03-08T02:11:18;23.27;;;13.13;;
54919;SDS011;63804;53.120;8.764;2024-03-08T02:13:47;21.77;;;12.85;;
54919;SDS011;63804;53.120;8.764;2024-03-08T02:16:20;22.23;;;12.52;;
54919;SDS011;63804;53.120;8.764;2024-03-08T02:18:48;24.65;;;13.90;;
54919;SDS011;63804;53.120;8.764;2024-03-08T02:21:16;21.75;;;13.02;;
54919;SDS011;63804;53.120;8.764;2024-03-08T02:23:51;23.25;;;13.07;;
54919;SDS011;63804;53.120;8.764;2024-03-08T02:26:21;23.63;;;13.98;;
54919;SDS011;63804;53.120;8.764;2024-03-08T02:28:49;22.77;;;13.23;;
54919;SDS011;63804;53.120;8.764;2024-03-08T02:31:16;24.27;;;13.27;;
54919;SDS011;63804;53.120;8.764;2024-03-08T02:33:44;22.33;;;12.57;;
54919;SDS011;63804;53.120;8.764;2024-03-08T02:36:11;24.23;;;13.45;;
54919;SDS011;63804;53.120;8.764;2024-03-08T02:38:39;20.27;;;12.88;;
54919;SDS011;63804;53.120;8.764;2024-03-08T02:41:09;24.10;;;13.18;;
54919;SDS011;63804;53.120;8.764;2024-03-08T02:43:37;23.75;;;13.85;;
54919;SDS011;63804;53.120;8.764;2024-03-08T02:46:05;24.48;;;14.68;;
54919;SDS011;63804;53.120;8.764;2024-03-08T02:48:32;23.48;;;13.93;;
54919;SDS011;63804;53.120;8.764;2024-03-08T02:51:00;23.00;;;13.63;;
54919;SDS011;63804;53.120;8.764;2024-03-08T02:53:31;23.75;;;13.75;;
54919;SDS011;63804;53.120;8.764;2024-03-08T02:55:58;23.85;;;13.57;;
54919;SDS011;63804;53.120;8.764;2024-03-08T02:58:26;23.80;;;13.73;;
54919;SDS011;63804;53.120;8.764;2024-03-08T03:00:53;25.27;;;14.00;;
54919;SDS011;63804;53.120;8.764;2024-03-08T03:03:20;24.38;;;13.93;;
54919;SDS011;63804;53.120;8.764;2024-03-08T03:05:47;21.67;;;12.68;;
54919;SDS011;63804;53.120;8.764;2024-03-08T03:08:15;24.52;;;13.88;;
54919;SDS011;63804;53.120;8.764;2024-03-08T03:10:44;22.58;;;13.25;;
54919;SDS011;63804;53.120;8.764;2024-03-08T03:13:13;23.02;;;13.13;;
54919;SDS011;63804;53.120;8.764;2024-03-08T03:15:41;21.92;;;12.48;;
54919;SDS011;63804;53.120;8.764;2024-03-08T03:18:11;22.92;;;13.10;;
54919;SDS011;63804;53.120;8.764;2024-03-08T03:20:39;23.88;;;13.00;;
54919;SDS011;63804;53.120;8.764;2024-03-08T03:23:10;23.55;;;13.57;;
54919;SDS011;63804;53.120;8.764;2024-03-08T03:25:42;22.45;;;14.10;;
54919;SDS011;63804;53.120;8.764;2024-03-08T03:28:10;23.30;;;13.13;;
54919;SDS011;63804;53.120;8.764;2024-03-08T03:30:41;22.80;;;12.98;;
54919;SDS011;63804;53.120;8.764;2024-03-08T03:33:14;23.67;;;13.38;;
54919;SDS011;63804;53.120;8.764;2024-03-08T03:35:43;25.08;;;14.27;;
54919;SDS011;63804;53.120;8.764;2024-03-08T03:38:11;22.75;;;13.55;;
54919;SDS011;63804;53.120;8.764;2024-03-08T03:40:41;24.42;;;14.45;;
54919;SDS011;63804;53.120;8.764;2024-03-08T03:43:08;21.45;;;12.52;;
54919;SDS011;63804;53.120;8.764;2024-03-08T03:45:39;22.15;;;12.77;;
54919;SDS011;63804;53.120;8.764;2024-03-08T03:48:09;24.73;;;14.30;;
54919;SDS011;63804;53.120;8.764;2024-03-08T03:50:38;25.08;;;14.60;;
54919;SDS011;63804;53.120;8.764;2024-03-08T03:53:06;22.85;;;14.52;;
54919;SDS011;63804;53.120;8.764;2024-03-08T03:55:37;24.73;;;14.82;;
54919;SDS011;63804;53.120;8.764;2024-03-08T03:58:07;23.83;;;13.77;;
54919;SDS011;63804;53.120;8.764;2024-03-08T04:00:38;24.85;;;13.88;;
54919;SDS011;63804;53.120;8.764;2024-03-08T04:03:05;23.80;;;14.38;;
54919;SDS011;63804;53.120;8.764;2024-03-08T04:05:34;23.27;;;13.93;;
54919;SDS011;63804;53.120;8.764;2024-03-08T04:08:02;23.30;;;13.73;;
54919;SDS011;63804;53.120;8.764;2024-03-08T04:10:30;24.35;;;13.65;;
54919;SDS011;63804;53.120;8.764;2024-03-08T04:12:57;23.98;;;13.68;;
54919;SDS011;63804;53.120;8.764;2024-03-08T04:15:24;27.13;;;14.10;;
54919;SDS011;63804;53.120;8.764;2024-03-08T04:17:51;24.38;;;13.68;;
54919;SDS011;63804;53.120;8.764;2024-03-08T04:20:19;22.35;;;13.00;;
54919;SDS011;63804;53.120;8.764;2024-03-08T04:22:48;25.58;;;13.98;;
54919;SDS011;63804;53.120;8.764;2024-03-08T04:25:16;22.50;;;12.80;;
54919;SDS011;63804;53.120;8.764;2024-03-08T04:27:44;23.58;;;13.85;;
54919;SDS011;63804;53.120;8.764;2024-03-08T04:30:12;22.60;;;12.70;;
54919;SDS011;63804;53.120;8.764;2024-03-08T04:32:40;22.95;;;13.20;;
54919;SDS011;63804;53.120;8.764;2024-03-08T04:35:08;22.88;;;13.70;;
54919;SDS011;63804;53.120;8.764;2024-03-08T04:37:36;23.58;;;13.45;;
54919;SDS011;63804;53.120;8.764;2024-03-08T04:40:03;23.13;;;13.38;;
54919;SDS011;63804;53.120;8.764;2024-03-08T04:42:31;24.17;;;13.43;;
54919;SDS011;63804;53.120;8.764;2024-03-08T04:45:02;23.33;;;14.07;;
54919;SDS011;63804;53.120;8.764;2024-03-08T04:47:31;22.65;;;13.88;;
54919;SDS011;63804;53.120;8.764;2024-03-08T04:49:58;24.35;;;13.95;;
54919;SDS011;63804;53.120;8.764;2024-03-08T04:52:26;26.17;;;13.43;;
54919;SDS011;63804;53.120;8.764;2024-03-08T04:54:55;24.60;;;13.43;;
54919;SDS011;63804;53.120;8.764;2024-03-08T04:57:22;24.60;;;14.10;;
54919;SDS011;63804;53.120;8.764;2024-03-08T04:59:50;24.58;;;14.48;;
54919;SDS011;63804;53.120;8.764;2024-03-08T05:02:20;24.17;;;14.07;;
54919;SDS011;63804;53.120;8.764;2024-03-08T05:04:49;23.83;;;13.93;;
54919;SDS011;63804;53.120;8.764;2024-03-08T05:07:17;25.10;;;14.25;;
54919;SDS011;63804;53.120;8.764;2024-03-08T05:09:46;23.98;;;13.85;;
54919;SDS011;63804;53.120;8.764;2024-03-08T05:12:19;24.30;;;14.30;;
54919;SDS011;63804;53.120;8.764;2024-03-08T05:14:46;23.27;;;14.07;;
54919;SDS011;63804;53.120;8.764;2024-03-08T05:17:16;25.63;;;14.60;;
54919;SDS011;63804;53.120;8.764;2024-03-08T05:19:44;25.30;;;14.43;;
54919;SDS011;63804;53.120;8.764;2024-03-08T05:22:12;25.98;;;14.50;;
54919;SDS011;63804;53.120;8.764;2024-03-08T05:24:40;25.83;;;15.00;;
54919;SDS011;63804;53.120;8.764;2024-03-08T05:27:07;24.73;;;14.13;;
54919;SDS011;63804;53.120;8.764;2024-03-08T05:29:35;23.23;;;14.68;;
54919;SDS011;63804;53.120;8.764;2024-03-08T05:32:02;24.85;;;14.27;;
54919;SDS011;63804;53.120;8.764;2024-03-08T05:34:31;27.05;;;14.93;;
54919;SDS011;63804;53.120;8.764;2024-03-08T05:36:58;26.42;;;14.65;;
54919;SDS011;63804;53.120;8.764;2024-03-08T05:39:27;26.33;;;15.25;;
54919;SDS011;63804;53.120;8.764;2024-03-08T05:41:54;24.80;;;14.63;;
54919;SDS011;63804;53.120;8.764;2024-03-08T05:44:23;24.17;;;14.13;;
54919;SDS011;63804;53.120;8.764;2024-03-08T05:46:50;26.63;;;15.00;;
54919;SDS011;63804;53.120;8.764;2024-03-08T05:49:17;24.17;;;14.73;;
54919;SDS011;63804;53.120;8.764;2024-03-08T05:51:45;24.33;;;14.80;;
54919;SDS011;63804;53.120;8.764;2024-03-08T05:54:14;26.80;;;14.25;;
54919;SDS011;63804;53.120;8.764;2024-03-08T05:56:45;23.98;;;13.35;;
54919;SDS011;63804;53.120;8.764;2024-03-08T05:59:14;24.33;;;14.48;;
54919;SDS011;63804;53.120;8.764;2024-03-08T06:01:42;24.85;;;14.07;;
54919;SDS011;63804;53.120;8.764;2024-03-08T06:04:10;23.35;;;14.15;;
54919;SDS011;63804;53.120;8.764;2024-03-08T06:06:41;22.65;;;13.95;;
54919;SDS011;63804;53.120;8.764;2024-03-08T06:09:08;25.55;;;14.77;;
54919;SDS011;63804;53.120;8.764;2024-03-08T06:11:39;26.00;;;14.13;;
54919;SDS011;63804;53.120;8.764;2024-03-08T06:14:07;26.50;;;14.48;;
54919;SDS011;63804;53.120;8.764;2024-03-08T06:16:34;25.83;;;15.07;;
54919;SDS011;63804;53.120;8.764;2024-03-08T06:19:03;27.65;;;15.15;;
54919;SDS011;63804;53.120;8.764;2024-03-08T06:21:30;22.42;;;14.25;;
54919;SDS011;63804;53.120;8.764;2024-03-08T06:23:59;25.60;;;14.68;;
54919;SDS011;63804;53.120;8.764;2024-03-08T06:26:27;24.92;;;14.68;;
54919;SDS011;63804;53.120;8.764;2024-03-08T06:29:00;26.27;;;14.90;;
54919;SDS011;63804;53.120;8.764;2024-03-08T06:31:27;24.90;;;14.88;;
54919;SDS011;63804;53.120;8.764;2024-03-08T06:33:55;27.50;;;15.27;;
54919;SDS011;63804;53.120;8.764;2024-03-08T06:36:23;27.02;;;15.98;;
54919;SDS011;63804;53.120;8.764;2024-03-08T06:38:51;27.85;;;15.30;;
54919;SDS011;63804;53.120;8.764;2024-03-08T06:41:19;25.85;;;14.88;;
54919;SDS011;63804;53.120;8.764;2024-03-08T06:43:47;26.75;;;15.68;;
54919;SDS011;63804;53.120;8.764;2024-03-08T06:46:16;24.90;;;15.23;;
54919;SDS011;63804;53.120;8.764;2024-03-08T06:48:43;25.77;;;15.77;;
54919;SDS011;63804;53.120;8.764;2024-03-08T06:51:13;26.77;;;15.50;;
54919;SDS011;63804;53.120;8.764;2024-03-08T06:53:41;26.83;;;15.38;;
54919;SDS011;63804;53.120;8.764;2024-03-08T06:56:09;25.05;;;15.60;;
54919;SDS011;63804;53.120;8.764;2024-03-08T06:58:36;27.27;;;15.70;;
54919;SDS011;63804;53.120;8.764;2024-03-08T07:01:04;27.33;;;15.68;;
54919;SDS011;63804;53.120;8.764;2024-03-08T07:03:35;26.00;;;16.02;;
54919;SDS011;63804;53.120;8.764;2024-03-08T07:06:02;29.02;;;16.17;;
54919;SDS011;63804;53.120;8.764;2024-03-08T07:08:31;29.83;;;15.93;;
54919;SDS011;63804;53.120;8.764;2024-03-08T07:10:59;30.17;;;16.67;;
54919;SDS011;63804;53.120;8.764;2024-03-08T07:13:27;29.42;;;16.60;;
54919;SDS011;63804;53.120;8.764;2024-03-08T07:15:56;27.23;;;16.38;;
54919;SDS011;63804;53.120;8.764;2024-03-08T07:18:23;27.15;;;16.55;;
54919;SDS011;63804;53.120;8.764;2024-03-08T07:20:51;26.27;;;15.70;;
54919;SDS011;63804;53.120;8.764;2024-03-08T07:23:18;25.60;;;16.23;;
54919;SDS011;63804;53.120;8.764;2024-03-08T07:26:04;25.17;;;15.90;;
54919;SDS011;63804;53.120;8.764;2024-03-08T07:28:34;28.15;;;16.08;;
54919;SDS011;63804;53.120;8.764;2024-03-08T07:31:02;28.33;;;15.63;;
54919;SDS011;63804;53.120;8.764;2024-03-08T07:33:41;26.73;;;15.73;;
54919;SDS011;63804;53.120;8.764;2024-03-08T07:36:09;27.98;;;15.98;;
54919;SDS011;63804;53.120;8.764;2024-03-08T07:38:36;25.80;;;15.95;;
54919;SDS011;63804;53.120;8.764;2024-03-08T07:41:04;25.88;;;15.52;;
54919;SDS011;63804;53.120;8.764;2024-03-08T07:43:31;25.55;;;15.75;;
54919;SDS011;63804;53.120;8.764;2024-03-08T07:46:00;26.25;;;16.10;;
54919;SDS011;63804;53.120;8.764;2024-03-08T07:48:27;27.35;;;16.25;;
54919;SDS011;63804;53.120;8.764;2024-03-08T07:50:55;28.80;;;16.20;;
54919;SDS011;63804;53.120;8.764;2024-03-08T07:53:22;27.25;;;15.73;;
54919;SDS011;63804;53.120;8.764;2024-03-08T07:55:51;28.13;;;15.85;;
54919;SDS011;63804;53.120;8.764;2024-03-08T07:58:19;26.77;;;16.00;;
54919;SDS011;63804;53.120;8.764;2024-03-08T08:00:47;26.85;;;16.00;;
54919;SDS011;63804;53.120;8.764;2024-03-08T08:03:14;27.27;;;15.98;;
54919;SDS011;63804;53.120;8.764;2024-03-08T08:05:42;28.65;;;16.73;;
54919;SDS011;63804;53.120;8.764;2024-03-08T08:08:12;28.90;;;17.55;;
54919;SDS011;63804;53.120;8.764;2024-03-08T08:10:40;28.33;;;16.52;;
54919;SDS011;63804;53.120;8.764;2024-03-08T08:13:10;28.55;;;17.08;;
54919;SDS011;63804;53.120;8.764;2024-03-08T08:15:38;25.90;;;15.60;;
54919;SDS011;63804;53.120;8.764;2024-03-08T08:18:05;31.67;;;19.95;;
54919;SDS011;63804;53.120;8.764;2024-03-08T08:20:33;32.15;;;19.95;;
54919;SDS011;63804;53.120;8.764;2024-03-08T08:23:01;28.80;;;17.48;;
54919;SDS011;63804;53.120;8.764;2024-03-08T08:25:28;26.52;;;16.00;;
54919;SDS011;63804;53.120;8.764;2024-03-08T08:27:56;26.42;;;16.00;;
54919;SDS011;63804;53.120;8.764;2024-03-08T08:30:23;28.88;;;16.02;;
54919;SDS011;63804;53.120;8.764;2024-03-08T08:32:50;27.00;;;16.98;;
54919;SDS011;63804;53.120;8.764;2024-03-08T08:35:18;30.55;;;17.20;;
54919;SDS011;63804;53.120;8.764;2024-03-08T08:37:46;28.65;;;16.65;;
54919;SDS011;63804;53.120;8.764;2024-03-08T08:40:14;26.67;;;16.35;;
54919;SDS011;63804;53.120;8.764;2024-03-08T08:42:42;30.75;;;17.20;;
54919;SDS011;63804;53.120;8.764;2024-03-08T08:45:10;26.25;;;16.17;;
54919;SDS011;63804;53.120;8.764;2024-03-08T08:47:46;29.17;;;17.10;;
54919;SDS011;63804;53.120;8.764;2024-03-08T08:50:14;27.75;;;16.20;;
54919;SDS011;63804;53.120;8.764;2024-03-08T08:52:41;27.92;;;15.90;;
54919;SDS011;63804;53.120;8.764;2024-03-08T08:55:12;29.25;;;17.25;;
54919;SDS011;63804;53.120;8.764;2024-03-08T08:57:42;29.70;;;17.30;;
54919;SDS011;63804;53.120;8.764;2024-03-08T09:00:09;32.00;;;18.92;;
54919;SDS011;63804;53.120;8.764;2024-03-08T09:02:42;26.70;;;16.08;;
54919;SDS011;63804;53.120;8.764;2024-03-08T09:05:10;27.85;;;16.63;;
54919;SDS011;63804;53.120;8.764;2024-03-08T09:07:38;24.85;;;15.43;;
54919;SDS011;63804;53.120;8.764;2024-03-08T09:10:06;27.88;;;15.68;;
54919;SDS011;63804;53.120;8.764;2024-03-08T09:12:39;28.30;;;16.80;;
54919;SDS011;63804;53.120;8.764;2024-03-08T09:15:07;27.70;;;16.17;;
54919;SDS011;63804;53.120;8.764;2024-03-08T09:17:40;25.95;;;16.20;;
54919;SDS011;63804;53.120;8.764;2024-03-08T09:20:09;29.48;;;16.75;;
54919;SDS011;63804;53.120;8.764;2024-03-08T09:22:45;27.15;;;16.20;;
54919;SDS011;63804;53.120;8.764;2024-03-08T09:25:15;28.50;;;16.17;;
54919;SDS011;63804;53.120;8.764;2024-03-08T09:27:43;28.65;;;16.25;;
54919;SDS011;63804;53.120;8.764;2024-03-08T09:30:10;26.50;;;15.35;;
54919;SDS011;63804;53.120;8.764;2024-03-08T09:32:40;27.27;;;16.70;;
54919;SDS011;63804;53.120;8.764;2024-03-08T09:35:08;27.58;;;16.08;;
54919;SDS011;63804;53.120;8.764;2024-03-08T09:37:35;27.33;;;16.65;;
54919;SDS011;63804;53.120;8.764;2024-03-08T09:40:03;26.58;;;16.58;;
54919;SDS011;63804;53.120;8.764;2024-03-08T09:42:37;26.42;;;15.75;;
54919;SDS011;63804;53.120;8.764;2024-03-08T09:45:06;26.40;;;16.23;;
54919;SDS011;63804;53.120;8.764;2024-03-08T09:47:39;28.25;;;16.30;;
54919;SDS011;63804;53.120;8.764;2024-03-08T09:50:08;28.75;;;17.35;;
54919;SDS011;63804;53.120;8.764;2024-03-08T09:52:39;29.17;;;16.52;;
54919;SDS011;63804;53.120;8.764;2024-03-08T09:55:07;25.75;;;16.30;;
54919;SDS011;63804;53.120;8.764;2024-03-08T09:57:38;28.00;;;16.58;;
54919;SDS011;63804;53.120;8.764;2024-03-08T10:00:07;27.40;;;17.10;;
54919;SDS011;63804;53.120;8.764;2024-03-08T10:02:51;25.27;;;16.50;;
54919;SDS011;63804;53.120;8.764;2024-03-08T10:05:20;24.33;;;16.15;;
54919;SDS011;63804;53.120;8.764;2024-03-08T10:07:48;26.48;;;16.63;;
54919;SDS011;63804;53.120;8.764;2024-03-08T10:10:16;28.67;;;16.52;;
54919;SDS011;63804;53.120;8.764;2024-03-08T10:12:44;27.85;;;17.02;;
54919;SDS011;63804;53.120;8.764;2024-03-08T10:15:12;26.95;;;17.23;;
54919;SDS011;63804;53.120;8.764;2024-03-08T10:17:43;27.02;;;16.75;;
54919;SDS011;63804;53.120;8.764;2024-03-08T10:20:14;26.70;;;16.92;;
54919;SDS011;63804;53.120;8.764;2024-03-08T10:22:43;26.02;;;15.68;;
54919;SDS011;63804;53.120;8.764;2024-03-08T10:25:23;27.40;;;16.67;;
54919;SDS011;63804;53.120;8.764;2024-03-08T10:27:51;26.83;;;16.80;;
54919;SDS011;63804;53.120;8.764;2024-03-08T10:30:18;27.88;;;17.10;;
54919;SDS011;63804;53.120;8.764;2024-03-08T10:32:47;27.70;;;16.92;;
54919;SDS011;63804;53.120;8.764;2024-03-08T10:35:15;24.70;;;15.98;;
54919;SDS011;63804;53.120;8.764;2024-03-08T10:37:47;26.10;;;16.08;;
54919;SDS011;63804;53.120;8.764;2024-03-08T10:40:27;28.63;;;16.85;;
54919;SDS011;63804;53.120;8.764;2024-03-08T10:42:58;29.17;;;17.02;;
54919;SDS011;63804;53.120;8.764;2024-03-08T10:48:18;26.52;;;15.77;;
54919;SDS011;63804;53.120;8.764;2024-03-08T10:51:05;27.52;;;17.08;;
54919;SDS011;63804;53.120;8.764;2024-03-08T10:53:34;25.48;;;16.88;;
54919;SDS011;63804;53.120;8.764;2024-03-08T10:56:04;26.42;;;16.83;;
54919;SDS011;63804;53.120;8.764;2024-03-08T10:58:31;26.60;;;17.55;;
54919;SDS011;63804;53.120;8.764;2024-03-08T11:01:02;23.90;;;15.73;;
54919;SDS011;63804;53.120;8.764;2024-03-08T11:08:37;26.25;;;17.08;;
54919;SDS011;63804;53.120;8.764;2024-03-08T11:11:05;24.42;;;16.55;;
54919;SDS011;63804;53.120;8.764;2024-03-08T11:13:59;45.65;;;16.50;;
54919;SDS011;63804;53.120;8.764;2024-03-08T11:18:54;27.38;;;17.23;;
54919;SDS011;63804;53.120;8.764;2024-03-08T11:24:01;25.48;;;16.33;;
54919;SDS011;63804;53.120;8.764;2024-03-08T11:26:35;23.25;;;16.00;;
54919;SDS011;63804;53.120;8.764;2024-03-08T11:34:50;28.27;;;16.70;;
54919;SDS011;63804;53.120;8.764;2024-03-08T11:37:18;25.08;;;16.25;;
54919;SDS011;63804;53.120;8.764;2024-03-08T11:39:48;25.30;;;15.93;;
54919;SDS011;63804;53.120;8.764;2024-03-08T11:42:19;25.45;;;15.75;;
54919;SDS011;63804;53.120;8.764;2024-03-08T11:44:46;25.10;;;16.67;;
54919;SDS011;63804;53.120;8.764;2024-03-08T11:47:15;27.30;;;17.80;;
54919;SDS011;63804;53.120;8.764;2024-03-08T11:49:43;26.45;;;17.60;;
54919;SDS011;63804;53.120;8.764;2024-03-08T11:52:11;25.98;;;16.45;;
54919;SDS011;63804;53.120;8.764;2024-03-08T11:54:42;25.63;;;16.92;;
54919;SDS011;63804;53.120;8.764;2024-03-08T11:57:17;26.77;;;17.23;;
54919;SDS011;63804;53.120;8.764;2024-03-08T11:59:51;26.50;;;15.57;;
54919;SDS011;63804;53.120;8.764;2024-03-08T12:02:23;24.23;;;16.02;;
54919;SDS011;63804;53.120;8.764;2024-03-08T12:04:57;23.55;;;15.60;;
54919;SDS011;63804;53.120;8.764;2024-03-08T12:07:30;25.83;;;15.85;;
54919;SDS011;63804;53.120;8.764;2024-03-08T12:12:46;24.25;;;15.27;;
54919;SDS011;63804;53.120;8.764;2024-03-08T12:15:15;23.90;;;14.43;;
54919;SDS011;63804;53.120;8.764;2024-03-08T12:17:45;24.67;;;14.98;;
54919;SDS011;63804;53.120;8.764;2024-03-08T12:22:50;21.50;;;13.57;;
54919;SDS011;63804;53.120;8.764;2024-03-08T12:25:41;20.55;;;13.85;;
54919;SDS011;63804;53.120;8.764;2024-03-08T12:28:09;22.05;;;15.02;;
54919;SDS011;63804;53.120;8.764;2024-03-08T12:33:16;21.77;;;14.27;;
54919;SDS011;63804;53.120;8.764;2024-03-08T12:35:50;24.23;;;15.15;;
54919;SDS011;63804;53.120;8.764;2024-03-08T12:38:21;24.40;;;15.20;;
54919;SDS011;63804;53.120;8.764;2024-03-08T12:40:57;24.17;;;15.55;;
54919;SDS011;63804;53.120;8.764;2024-03-08T12:43:26;24.98;;;15.23;;
54919;SDS011;63804;53.120;8.764;2024-03-08T12:45:55;25.17;;;16.05;;
54919;SDS011;63804;53.120;8.764;2024-03-08T12:48:22;24.58;;;16.25;;
54919;SDS011;63804;53.120;8.764;2024-03-08T12:50:49;24.10;;;14.98;;
54919;SDS011;63804;53.120;8.764;2024-03-08T12:53:18;23.58;;;14.88;;
54919;SDS011;63804;53.120;8.764;2024-03-08T12:55:45;26.73;;;16.40;;
54919;SDS011;63804;53.120;8.764;2024-03-08T12:58:12;25.98;;;16.40;;
54919;SDS011;63804;53.120;8.764;2024-03-08T13:00:40;23.65;;;15.52;;
54919;SDS011;63804;53.120;8.764;2024-03-08T13:03:10;24.55;;;15.55;;
54919;SDS011;63804;53.120;8.764;2024-03-08T13:05:38;24.55;;;15.75;;
54919;SDS011;63804;53.120;8.764;2024-03-08T13:08:09;22.38;;;14.98;;
54919;SDS011;63804;53.120;8.764;2024-03-08T13:10:39;22.65;;;15.27;;
54919;SDS011;63804;53.120;8.764;2024-03-08T13:13:07;23.08;;;15.93;;
54919;SDS011;63804;53.120;8.764;2024-03-08T13:15:36;23.90;;;15.70;;
54919;SDS011;63804;53.120;8.764;2024-03-08T13:18:03;26.40;;;17.23;;
54919;SDS011;63804;53.120;8.764;2024-03-08T13:20:32;26.27;;;16.50;;
54919;SDS011;63804;53.120;8.764;2024-03-08T13:23:12;25.17;;;15.82;;
54919;SDS011;63804;53.120;8.764;2024-03-08T13:25:39;24.80;;;16.00;;
54919;SDS011;63804;53.120;8.764;2024-03-08T13:28:08;26.35;;;16.23;;
54919;SDS011;63804;53.120;8.764;2024-03-08T13:30:36;25.83;;;15.70;;
54919;SDS011;63804;53.120;8.764;2024-03-08T13:33:03;23.63;;;15.68;;
54919;SDS011;63804;53.120;8.764;2024-03-08T13:35:32;24.13;;;15.75;;
54919;SDS011;63804;53.120;8.764;2024-03-08T13:37:59;23.13;;;14.98;;
54919;SDS011;63804;53.120;8.764;2024-03-08T13:40:30;23.58;;;15.43;;
54919;SDS011;63804;53.120;8.764;2024-03-08T13:42:58;29.33;;;15.23;;
54919;SDS011;63804;53.120;8.764;2024-03-08T13:45:28;21.73;;;14.65;;
54919;SDS011;63804;53.120;8.764;2024-03-08T13:47:55;23.00;;;15.00;;
54919;SDS011;63804;53.120;8.764;2024-03-08T13:50:23;22.63;;;14.43;;
54919;SDS011;63804;53.120;8.764;2024-03-08T13:52:50;22.25;;;14.30;;
54919;SDS011;63804;53.120;8.764;2024-03-08T13:55:22;24.10;;;15.35;;
54919;SDS011;63804;53.120;8.764;2024-03-08T13:57:53;24.52;;;14.80;;
54919;SDS011;63804;53.120;8.764;2024-03-08T14:00:20;23.13;;;14.80;;
54919;SDS011;63804;53.120;8.764;2024-03-08T14:02:54;22.52;;;14.77;;
54919;SDS011;63804;53.120;8.764;2024-03-08T14:05:21;24.63;;;15.50;;
54919;SDS011;63804;53.120;8.764;2024-03-08T14:07:49;21.90;;;14.57;;
54919;SDS011;63804;53.120;8.764;2024-03-08T14:10:17;24.33;;;15.85;;
54919;SDS011;63804;53.120;8.764;2024-03-08T14:12:47;23.73;;;14.60;;
54919;SDS011;63804;53.120;8.764;2024-03-08T14:15:15;21.80;;;14.02;;
54919;SDS011;63804;53.120;8.764;2024-03-08T14:17:43;23.05;;;15.45;;
54919;SDS011;63804;53.120;8.764;2024-03-08T14:20:14;25.88;;;15.25;;
54919;SDS011;63804;53.120;8.764;2024-03-08T14:22:41;24.83;;;14.85;;
54919;SDS011;63804;53.120;8.764;2024-03-08T14:25:08;23.13;;;14.95;;
54919;SDS011;63804;53.120;8.764;2024-03-08T14:27:45;26.20;;;15.40;;
54919;SDS011;63804;53.120;8.764;2024-03-08T14:30:13;21.85;;;14.90;;
54919;SDS011;63804;53.120;8.764;2024-03-08T14:33:06;24.35;;;15.32;;
54919;SDS011;63804;53.120;8.764;2024-03-08T14:35:36;25.50;;;15.35;;
54919;SDS011;63804;53.120;8.764;2024-03-08T14:38:04;23.83;;;14.75;;
54919;SDS011;63804;53.120;8.764;2024-03-08T14:40:35;24.73;;;15.65;;
54919;SDS011;63804;53.120;8.764;2024-03-08T14:43:03;22.83;;;14.35;;
54919;SDS011;63804;53.120;8.764;2024-03-08T14:45:32;24.65;;;14.95;;
54919;SDS011;63804;53.120;8.764;2024-03-08T14:47:59;24.38;;;14.93;;
54919;SDS011;63804;53.120;8.764;2024-03-08T14:50:28;23.85;;;15.27;;
54919;SDS011;63804;53.120;8.764;2024-03-08T14:52:55;23.33;;;14.77;;
54919;SDS011;63804;53.120;8.764;2024-03-08T14:55:22;25.63;;;16.08;;
54919;SDS011;63804;53.120;8.764;2024-03-08T14:57:49;26.77;;;16.83;;